Time;durP1;ratioP1;P1;durP2;ratioP2;P2;SDS_P1;SDS_P2;PMS_P1;PMS_P2;Temp;Humidity;BMP_temperature;BMP_pressure;BME280_temperature;BME280_humidity;BME280_pressure;Samples;Min_cycle;Max_cycle;Signal;HPM_P1;HPM_P2
2022/01/24 00:01:51;;;;;;;21.42;8.83;;;;;;;-4.05;71.03;101849.60;1685706;83;21076;-64
2022/01/24 00:04:21;;;;;;;10.20;7.40;;;;;;;-4.11;71.52;101859.80;1686598;84;21010;-63
2022/01/24 00:06:52;;;;;;;12.23;8.80;;;;;;;-4.18;71.37;101866.12;1678174;84;21119;-62
2022/01/24 00:09:19;;;;;;;15.20;9.77;;;;;;;-4.27;71.65;101868.22;1677613;83;20972;-62
2022/01/24 00:17:10;;;;;;;14.87;8.97;;;;;;;-4.57;71.30;101883.55;1681526;84;20119;-60
2022/01/24 00:27:49;;;;;;;14.90;10.93;;;;;;;-5.22;71.38;101912.11;1686516;84;20995;-61
2022/01/24 00:30:18;;;;;;;15.17;11.17;;;;;;;-5.33;71.50;101920.70;1686398;84;21151;-61
2022/01/24 00:32:45;;;;;;;15.37;10.90;;;;;;;-5.43;71.89;101929.69;1682998;84;21085;-62
2022/01/24 00:35:11;;;;;;;15.00;10.97;;;;;;;-5.52;72.02;101936.88;1684902;84;21051;-61
2022/01/24 00:37:39;;;;;;;14.83;10.33;;;;;;;-5.73;72.69;101937.02;1692399;84;21063;-62
2022/01/24 00:40:08;;;;;;;15.43;8.80;;;;;;;-5.88;73.20;101937.05;1679430;84;21023;-63
2022/01/24 00:42:56;;;;;;;16.50;11.60;;;;;;;-6.07;74.45;101934.11;1684458;84;21026;-62
2022/01/24 00:45:41;;;;;;;19.43;11.07;;;;;;;-6.18;74.62;101937.91;1680839;84;21075;-64
2022/01/24 00:55:52;;;;;;;17.43;11.43;;;;;;;-6.69;77.10;101945.70;1678061;84;21043;-62
2022/01/24 00:58:18;;;;;;;20.05;13.70;;;;;;;-6.77;77.08;101936.81;1679249;84;21268;-62
2022/01/24 01:00:45;;;;;;;13.53;9.10;;;;;;;-6.80;77.74;101938.63;1692099;84;20988;-62
2022/01/24 01:03:11;;;;;;;16.73;11.38;;;;;;;-6.81;78.20;101919.63;1713818;83;21022;-62
2022/01/24 01:19:06;;;;;;;17.87;11.90;;;;;;;-7.04;79.35;101940.94;1723282;82;21011;-63
2022/01/24 01:21:34;;;;;;;14.60;9.73;;;;;;;-7.06;79.33;101944.02;1650697;85;21044;-62
2022/01/24 01:24:01;;;;;;;21.57;11.30;;;;;;;-7.10;79.46;101947.12;1704454;84;21030;-61
2022/01/24 01:26:34;;;;;;;22.23;12.37;;;;;;;-7.12;79.47;101948.02;1711194;82;21547;-62
2022/01/24 01:29:04;;;;;;;20.97;13.37;;;;;;;-7.11;79.52;101951.03;1703872;84;21144;-61
2022/01/24 01:32:27;;;;;;;;;;;;;;;;;;;;;
2022/01/24 01:34:54;;;;;;;19.97;12.13;;;;;;;-7.04;79.24;101953.89;1686748;82;21471;-64
2022/01/24 01:37:29;;;;;;;19.50;12.43;;;;;;;-7.20;79.16;101941.72;1703271;83;21085;-62
2022/01/24 01:55:39;;;;;;;14.87;11.07;;;;;;;-7.65;80.22;101985.44;1665254;85;21071;-62
2022/01/24 01:58:14;;;;;;;19.33;9.33;;;;;;;-7.73;80.52;101976.95;1666695;84;21520;-61
2022/01/24 02:00:44;;;;;;;16.73;9.77;;;;;;;-7.83;80.93;101970.27;1724583;82;21031;-62
2022/01/24 02:03:12;;;;;;;19.60;11.43;;;;;;;-7.90;81.52;101968.67;1724257;82;21053;-62
2022/01/24 02:05:38;;;;;;;23.80;11.87;;;;;;;-7.95;81.77;101971.78;1668502;85;21095;-61
2022/01/24 02:08:05;;;;;;;20.37;12.23;;;;;;;-7.94;81.72;101967.03;1728167;83;21021;-62
2022/01/24 02:10:35;;;;;;;16.53;11.73;;;;;;;-7.89;81.94;101972.95;1712559;83;21014;-61
2022/01/24 02:13:02;;;;;;;18.60;11.77;;;;;;;-7.83;81.95;101975.45;1660101;85;21026;-62
2022/01/24 02:18:08;;;;;;;14.27;8.70;;;;;;;-7.70;81.74;101982.53;1726199;82;21506;-61
2022/01/24 02:21:07;;;;;;;15.00;10.37;;;;;;;-7.73;81.48;101967.89;1722239;83;21026;-61
2022/01/24 02:25:59;;;;;;;16.62;11.33;;;;;;;-7.83;81.62;101964.64;1696674;84;21077;-60
2022/01/24 02:28:40;;;;;;;17.25;11.83;;;;;;;-7.84;81.67;101976.31;1707913;82;21022;-61
2022/01/24 02:33:24;;;;;;;14.25;9.40;;;;;;;-7.79;81.98;101982.27;1713319;82;21232;-61
2022/01/24 02:35:52;;;;;;;16.60;9.83;;;;;;;-7.78;81.52;101982.66;1726722;82;21065;-61
2022/01/24 02:38:32;;;;;;;18.03;11.67;;;;;;;-7.88;81.51;101983.73;1727066;82;21022;-62
2022/01/24 02:46:01;;;;;;;15.70;10.80;;;;;;;-7.93;81.57;101978.66;1718147;82;21148;-62
2022/01/24 02:48:23;;;;;;;19.93;11.57;;;;;;;-7.93;81.93;101981.66;1722084;83;20997;-64
2022/01/24 02:48:35;;;;;;;17.15;11.38;;;;;;;-7.93;81.99;101980.38;1664512;85;21024;-62
2022/01/24 02:51:39;;;;;;;16.50;10.80;;;;;;;-7.89;82.01;101977.71;1656760;84;21083;-61
2022/01/24 02:53:51;;;;;;;17.57;11.37;;;;;;;-7.83;82.11;101972.41;1723844;82;21149;-63
2022/01/24 02:56:17;;;;;;;18.05;9.95;;;;;;;-7.77;81.93;101977.91;1721192;82;21538;-61
2022/01/24 02:58:44;;;;;;;13.30;8.65;;;;;;;-7.83;81.59;101973.70;1713227;82;20975;-60
2022/01/24 03:01:10;;;;;;;16.10;11.27;;;;;;;-7.80;81.43;101977.95;1729762;82;21123;-61
2022/01/24 03:03:38;;;;;;;17.90;10.15;;;;;;;-7.76;81.55;101970.56;1667565;84;21106;-64
2022/01/24 03:06:06;;;;;;;13.97;9.33;;;;;;;-7.72;81.57;101981.27;1713024;82;22040;-61
2022/01/24 03:08:37;;;;;;;16.83;10.47;;;;;;;-7.66;81.60;101978.99;1723690;82;21582;-63
2022/01/24 03:11:01;;;;;;;18.83;9.67;;;;;;;-7.58;81.49;101986.15;1712189;83;21021;-61
2022/01/24 03:15:58;;;;;;;16.00;10.80;;;;;;;-7.43;81.35;101983.69;1663410;85;21034;-63
2022/01/24 03:18:25;;;;;;;13.47;9.33;;;;;;;-7.41;81.06;101984.95;1727874;83;21026;-63
2022/01/24 03:20:52;;;;;;;18.03;11.00;;;;;;;-7.41;80.97;101989.69;1690503;83;21140;-62
2022/01/24 03:23:22;;;;;;;19.10;10.47;;;;;;;-7.47;80.92;101991.96;1708240;83;21053;-62
2022/01/24 03:25:49;;;;;;;18.23;11.40;;;;;;;-7.54;81.20;101989.08;1720290;82;21489;-63
2022/01/24 03:28:17;;;;;;;19.53;11.90;;;;;;;-7.53;81.33;101988.66;1717053;83;21094;-62
2022/01/24 03:30:46;;;;;;;21.67;13.80;;;;;;;-7.53;81.48;101986.92;1714997;82;21061;-65
2022/01/24 03:33:12;;;;;;;17.43;11.90;;;;;;;-7.51;81.43;101984.30;1723256;82;20987;-61
2022/01/24 03:35:40;;;;;;;16.63;11.23;;;;;;;-7.47;81.62;101986.78;1719714;83;21057;-62
2022/01/24 03:38:07;;;;;;;14.47;9.97;;;;;;;-7.42;81.70;101990.59;1722820;83;21075;-64
2022/01/24 03:40:33;;;;;;;14.45;10.40;;;;;;;-7.39;81.72;101983.18;1728051;82;21510;-63
2022/01/24 03:42:59;;;;;;;18.75;11.80;;;;;;;-7.35;81.70;101984.36;1725097;82;21591;-64
2022/01/24 03:45:38;;;;;;;13.30;10.18;;;;;;;-7.29;81.66;101987.27;1716715;83;20998;-64
2022/01/24 03:48:07;;;;;;;15.23;9.57;;;;;;;-7.28;81.54;101984.64;1709902;82;21038;-64
2022/01/24 03:50:30;;;;;;;18.57;11.50;;;;;;;-7.25;81.54;101984.59;1710872;82;21105;-63
2022/01/24 03:52:56;;;;;;;16.20;10.98;;;;;;;-7.19;81.63;101990.53;1723114;83;21542;-62
2022/01/24 03:55:22;;;;;;;18.85;11.45;;;;;;;-7.23;81.22;101993.63;1712922;81;21224;-63
2022/01/24 03:57:48;;;;;;;16.48;10.78;;;;;;;-7.27;81.04;101990.67;1727670;83;21554;-62
2022/01/24 04:00:15;;;;;;;16.67;10.82;;;;;;;-7.29;81.11;101995.04;1665944;85;21566;-64
2022/01/24 04:02:41;;;;;;;18.10;12.67;;;;;;;-7.24;81.45;101990.16;1685121;84;21069;-63
2022/01/24 04:05:09;;;;;;;15.78;11.75;;;;;;;-7.17;81.34;101996.08;1673251;84;21063;-63
2022/01/24 04:07:35;;;;;;;22.77;13.07;;;;;;;-7.16;81.01;101994.33;1725097;83;20986;-63
2022/01/24 04:10:09;;;;;;;22.20;12.43;;;;;;;-7.14;81.03;101993.85;1726755;82;21556;-63
2022/01/24 04:12:37;;;;;;;16.60;10.90;;;;;;;-7.06;81.22;101982.44;1648993;85;21107;-62
2022/01/24 04:15:12;;;;;;;23.33;12.87;;;;;;;-7.00;80.85;101985.33;1715551;82;21528;-63
2022/01/24 04:17:43;;;;;;;18.37;11.63;;;;;;;-7.00;80.44;101977.56;1719454;82;21025;-63
2022/01/24 04:22:48;;;;;;;19.03;11.70;;;;;;;-6.93;79.98;101963.99;1630622;85;21063;-64
2022/01/24 04:25:14;;;;;;;26.23;14.03;;;;;;;-6.97;79.50;101971.44;1725803;82;20983;-65
2022/01/24 04:27:36;;;;;;;24.30;13.13;;;;;;;-7.06;79.45;101963.00;1728834;82;21034;-63
2022/01/24 04:30:07;;;;;;;26.90;14.00;;;;;;;-7.07;79.90;101970.80;1719845;82;21102;-64
2022/01/24 04:32:33;;;;;;;24.97;14.63;;;;;;;-7.08;79.79;101975.59;1718843;82;21561;-65
2022/01/24 04:34:59;;;;;;;26.33;14.78;;;;;;;-7.13;79.62;101978.73;1726391;82;21009;-63
2022/01/24 04:37:26;;;;;;;;;;;;;;;-7.17;79.92;101980.53;1715799;82;21045;-65
2022/01/24 04:39:53;;;;;;;25.03;16.03;;;;;;;-7.18;80.08;101980.56;1720892;82;20149;-63
2022/01/24 04:42:28;;;;;;;23.83;13.37;;;;;;;-7.22;80.26;101977.19;1724351;82;21057;-63
2022/01/24 04:55:52;;;;;;;21.17;11.87;;;;;;;-7.22;80.42;102016.50;1729795;80;20953;-60
2022/01/24 04:58:18;;;;;;;21.10;11.57;;;;;;;-7.27;80.76;102014.87;1709283;83;21096;-59
2022/01/24 05:00:44;;;;;;;23.10;12.37;;;;;;;-7.29;80.63;102014.05;1708060;82;21002;-60
2022/01/24 05:03:10;;;;;;;18.15;11.57;;;;;;;-7.31;80.56;102014.95;1701658;83;21080;-60
2022/01/24 05:05:36;;;;;;;20.68;12.20;;;;;;;-7.29;80.58;102020.95;1706393;83;21044;-59
2022/01/24 05:08:05;;;;;;;21.50;12.58;;;;;;;-7.27;80.55;102031.71;1696026;83;21072;-61
2022/01/24 05:10:39;;;;;;;21.47;11.37;;;;;;;-7.23;80.44;102022.14;1694738;83;21016;-61
2022/01/24 05:23:51;;;;;;;20.57;10.93;;;;;;;-7.47;80.21;102021.75;1607228;86;21041;-60
2022/01/24 05:26:17;;;;;;;23.33;11.07;;;;;;;-7.52;80.22;102025.31;1673863;84;21528;-62
2022/01/24 05:28:44;;;;;;;18.90;9.55;;;;;;;-7.56;79.96;102026.27;1668763;84;21076;-60
2022/01/24 05:31:10;;;;;;;15.85;9.55;;;;;;;-7.69;80.52;102031.67;1670402;84;21147;-60
2022/01/24 05:33:36;;;;;;;16.60;10.18;;;;;;;-7.72;80.44;102031.75;1673703;83;21093;-60
2022/01/24 05:36:03;;;;;;;13.62;9.10;;;;;;;-7.73;80.55;102039.09;1658467;84;20991;-61
2022/01/24 05:38:30;;;;;;;14.13;6.80;;;;;;;-7.68;80.65;102035.98;1666201;84;21068;-62
2022/01/24 05:40:57;;;;;;;18.42;11.90;;;;;;;-7.68;80.60;102037.28;1640304;86;21052;-61
2022/01/24 05:43:23;;;;;;;16.83;9.73;;;;;;;-7.64;80.33;102037.63;1632052;86;21080;-63
2022/01/24 05:45:50;;;;;;;18.45;10.55;;;;;;;-7.61;80.51;102031.52;1657643;84;21067;-59
2022/01/24 05:48:16;;;;;;;16.35;10.68;;;;;;;-7.58;80.41;102034.52;1662911;85;21063;-61
2022/01/24 05:50:42;;;;;;;22.32;12.33;;;;;;;-7.61;80.40;102029.38;1659450;85;21537;-61
2022/01/24 05:53:09;;;;;;;17.10;9.25;;;;;;;-7.60;80.48;102025.47;1660206;85;21014;-61
2022/01/24 05:55:36;;;;;;;17.80;9.43;;;;;;;-7.57;80.65;102027.14;1655338;84;21086;-61
2022/01/24 05:58:02;;;;;;;13.25;9.30;;;;;;;-7.55;80.65;102025.37;1630514;86;21001;-61
2022/01/24 06:00:28;;;;;;;21.95;10.30;;;;;;;-7.54;80.50;102028.38;1630995;86;21124;-62
2022/01/24 06:02:55;;;;;;;15.68;10.30;;;;;;;-7.53;80.57;102026.22;1630878;86;21081;-63
2022/01/24 06:05:21;;;;;;;20.10;10.80;;;;;;;-7.88;80.65;101955.26;1616612;87;21045;-61
2022/01/24 06:07:49;;;;;;;15.55;8.85;;;;;;;-7.42;80.57;102028.15;1640184;86;21045;-62
2022/01/24 06:10:15;;;;;;;16.40;10.83;;;;;;;-7.43;80.65;102026.42;1640947;86;21601;-63
2022/01/24 06:12:41;;;;;;;13.88;9.23;;;;;;;-7.39;80.68;102026.77;1630263;86;21092;-62
2022/01/24 06:15:08;;;;;;;16.15;10.38;;;;;;;-7.30;80.86;102031.77;1625342;86;21105;-63
2022/01/24 06:17:35;;;;;;;16.30;9.87;;;;;;;-7.27;80.22;102034.72;1631832;86;21044;-59
2022/01/24 06:20:02;;;;;;;15.23;9.35;;;;;;;-7.25;80.30;102034.28;1616007;87;21116;-62
2022/01/24 06:22:28;;;;;;;16.73;11.20;;;;;;;-7.21;80.38;102037.63;1629037;84;21143;-65
2022/01/24 06:24:55;;;;;;;16.00;9.83;;;;;;;-7.17;80.32;102036.70;1596527;87;21049;-63
2022/01/24 06:27:21;;;;;;;14.07;8.25;;;;;;;-7.14;80.01;102046.98;1632085;86;21060;-61
2022/01/24 06:29:48;;;;;;;18.20;9.53;;;;;;;-7.12;79.95;102042.61;1630924;86;21071;-62
2022/01/24 06:32:14;;;;;;;13.35;8.50;;;;;;;-7.09;79.77;102039.97;1631056;86;21103;-61
2022/01/24 06:34:40;;;;;;;13.70;9.45;;;;;;;-7.02;79.85;102031.63;1629263;86;21577;-62
2022/01/24 06:37:06;;;;;;;17.17;10.18;;;;;;;-6.98;79.74;102031.52;1633924;86;21606;-61
2022/01/24 06:39:33;;;;;;;16.90;9.53;;;;;;;-6.93;79.20;102031.40;1660988;85;20993;-62
2022/01/24 06:44:37;;;;;;;15.37;9.47;;;;;;;-6.91;79.18;102039.98;1637800;85;21704;-62
2022/01/24 06:47:05;;;;;;;15.45;8.53;;;;;;;-6.88;79.08;102038.64;1634917;85;21056;-63
2022/01/24 06:49:31;;;;;;;15.30;9.73;;;;;;;-6.90;79.19;102034.78;1645864;85;21632;-61
2022/01/24 06:51:58;;;;;;;11.73;7.90;;;;;;;-6.86;79.22;102037.70;1655231;85;21025;-62
2022/01/24 06:54:24;;;;;;;;;;;;;;;-6.80;79.38;102025.05;1655740;86;21080;-61
2022/01/24 06:56:50;;;;;;;15.07;8.47;;;;;;;-6.81;78.98;102026.40;1654611;82;20179;-61
2022/01/24 06:59:16;;;;;;;13.10;7.65;;;;;;;-6.85;79.36;102025.62;1638876;86;21108;-60
2022/01/24 07:01:42;;;;;;;14.20;8.18;;;;;;;-6.82;79.54;102035.05;1647088;86;21154;-62
2022/01/24 07:04:08;;;;;;;13.83;9.05;;;;;;;-6.77;79.42;102031.92;1598261;88;21048;-61
2022/01/24 07:06:35;;;;;;;19.12;10.03;;;;;;;-6.73;79.48;102033.09;1642112;87;21070;-62
2022/01/24 07:09:03;;;;;;;13.22;8.28;;;;;;;-6.70;79.23;102032.19;1611174;87;21125;-63
2022/01/24 07:11:31;;;;;;;14.27;9.63;;;;;;;-6.70;79.31;102030.89;1641374;85;21505;-64
2022/01/24 07:13:57;;;;;;;16.67;9.98;;;;;;;-6.66;79.26;102033.81;1688172;83;21050;-63
2022/01/24 07:16:34;;;;;;;15.72;9.83;;;;;;;-6.62;79.38;102037.20;1677001;84;21617;-65
2022/01/24 07:18:58;;;;;;;15.13;8.40;;;;;;;-6.54;79.43;102043.05;1681431;83;21064;-63
2022/01/24 07:21:25;;;;;;;12.17;7.67;;;;;;;-6.44;79.38;102047.56;1672074;84;21026;-64
2022/01/24 07:23:52;;;;;;;16.60;8.43;;;;;;;-6.35;79.24;102035.20;1682701;84;21037;-63
2022/01/24 07:26:18;;;;;;;19.73;11.67;;;;;;;-6.29;78.85;102029.89;1686649;84;21541;-62
2022/01/24 07:28:44;;;;;;;13.53;8.55;;;;;;;-6.26;78.41;102038.03;1684344;84;21034;-63
2022/01/24 07:31:13;;;;;;;14.70;9.03;;;;;;;-6.25;78.53;102037.16;1676165;84;21032;-62
2022/01/24 07:33:40;;;;;;;15.40;10.03;;;;;;;-6.19;78.27;102030.95;1678654;84;21171;-62
2022/01/24 07:36:07;;;;;;;14.45;8.68;;;;;;;-6.16;78.35;102026.55;1680190;84;21041;-61
2022/01/24 07:38:33;;;;;;;10.87;8.10;;;;;;;-6.10;78.53;102026.37;1682782;84;21045;-61
2022/01/24 07:41:01;;;;;;;11.50;7.70;;;;;;;-6.03;78.55;102023.16;1680283;84;21013;-61
2022/01/24 07:43:27;;;;;;;17.47;8.37;;;;;;;-5.98;77.72;102025.65;1674126;84;21048;-61
2022/01/24 07:45:55;;;;;;;14.63;8.55;;;;;;;-5.97;77.71;102025.62;1678431;84;21149;-63
2022/01/24 07:48:21;;;;;;;15.40;9.57;;;;;;;-5.93;77.86;102024.60;1682329;84;21086;-63
2022/01/24 07:50:48;;;;;;;13.88;9.10;;;;;;;-5.84;77.86;102027.38;1675235;84;21047;-63
2022/01/24 07:53:16;;;;;;;18.10;9.15;;;;;;;-5.77;77.57;102025.03;1658994;85;21127;-65
2022/01/24 07:55:43;;;;;;;14.13;9.40;;;;;;;-5.79;77.16;102015.12;1683505;84;21552;-64
2022/01/24 07:58:10;;;;;;;13.50;8.83;;;;;;;-5.75;76.93;102014.60;1699190;82;21027;-66
2022/01/24 08:00:38;;;;;;;11.75;8.08;;;;;;;-5.74;76.87;102004.62;1704775;82;21685;-68
2022/01/24 08:03:06;;;;;;;12.37;8.53;;;;;;;-5.69;77.04;102007.92;1689145;83;21601;-66
2022/01/24 08:05:35;;;;;;;13.40;9.30;;;;;;;-5.63;76.69;102006.91;1695399;83;21494;-66
2022/01/24 08:08:02;;;;;;;15.33;9.33;;;;;;;-5.65;76.44;102008.27;1690047;83;21006;-66
2022/01/24 08:10:28;;;;;;;14.03;8.93;;;;;;;-5.61;76.52;102002.52;1691353;83;21134;-65
2022/01/24 08:12:54;;;;;;;17.50;9.33;;;;;;;-5.52;76.65;102007.45;1703906;83;21078;-67
2022/01/24 08:15:21;;;;;;;16.70;10.23;;;;;;;-5.45;76.11;102004.25;1701282;83;21088;-66
2022/01/24 08:17:47;;;;;;;13.00;9.00;;;;;;;-5.46;75.67;101999.50;1705041;83;21550;-65
2022/01/24 08:20:16;;;;;;;14.47;9.87;;;;;;;-5.43;75.47;102003.30;1709931;83;21046;-64
2022/01/24 08:22:44;;;;;;;12.60;8.60;;;;;;;-5.46;75.67;102004.70;1697703;80;21049;-66
2022/01/24 08:25:12;;;;;;;12.00;7.57;;;;;;;-5.42;76.09;102003.71;1677318;84;21052;-64
2022/01/24 08:27:39;;;;;;;13.07;8.80;;;;;;;-5.32;75.92;101996.48;1672886;84;21053;-68
2022/01/24 08:30:17;;;;;;;17.75;10.55;;;;;;;-5.25;75.66;101991.52;1682757;84;21534;-65
2022/01/24 08:32:46;;;;;;;16.13;7.50;;;;;;;-5.17;75.52;101989.98;1675727;84;21143;-65
2022/01/24 08:35:16;;;;;;;17.10;10.50;;;;;;;-5.13;74.79;101996.79;1685867;83;21569;-65
2022/01/24 08:37:42;;;;;;;17.07;11.30;;;;;;;-5.09;74.39;101995.80;1671579;84;21001;-63
2022/01/24 08:40:19;;;;;;;16.07;10.25;;;;;;;-5.10;74.59;102000.61;1680238;84;21155;-67
2022/01/24 08:42:45;;;;;;;17.73;10.43;;;;;;;-5.07;74.52;101990.55;1678676;84;21841;-64
2022/01/24 08:47:57;;;;;;;14.27;9.77;;;;;;;-5.09;73.69;101994.48;1648009;85;21541;-68
2022/01/24 08:50:26;;;;;;;16.67;9.50;;;;;;;-5.10;73.85;101996.25;1654755;85;21111;-71
2022/01/24 08:52:59;;;;;;;17.13;9.43;;;;;;;-5.09;73.79;101987.99;1654016;85;21157;-63
2022/01/24 08:55:28;;;;;;;14.93;9.30;;;;;;;-5.02;73.62;101981.70;1654694;84;21049;-66
2022/01/24 08:57:57;;;;;;;11.87;8.33;;;;;;;-4.96;73.34;101982.80;1680381;84;21655;-65
2022/01/24 09:00:24;;;;;;;12.90;8.70;;;;;;;-4.91;73.16;101985.28;1672776;84;21983;-63
2022/01/24 09:02:52;;;;;;;14.23;10.03;;;;;;;-4.84;72.66;101988.09;1671226;84;21467;-67
2022/01/24 09:05:23;;;;;;;16.30;9.13;;;;;;;-4.83;72.54;101985.87;1669013;84;21005;-64
2022/01/24 09:07:52;;;;;;;19.70;12.23;;;;;;;-4.77;72.81;101977.03;1670333;84;21541;-66
2022/01/24 09:10:19;;;;;;;18.40;10.23;;;;;;;-5.04;72.59;101918.95;1669028;84;21393;-65
2022/01/24 09:12:46;;;;;;;17.77;10.10;;;;;;;-4.56;72.04;101976.34;1677822;84;21026;-67
2022/01/24 09:15:14;;;;;;;18.20;10.32;;;;;;;-4.51;71.48;101979.63;1650385;84;21030;-65
2022/01/24 09:17:42;;;;;;;18.40;10.57;;;;;;;-4.44;71.18;101972.48;1670545;84;21062;-66
2022/01/24 09:20:11;;;;;;;18.37;11.30;;;;;;;-4.43;70.58;101979.83;1671486;84;21002;-65
2022/01/24 09:22:38;;;;;;;18.50;11.93;;;;;;;-4.42;70.77;101971.97;1665675;83;21070;-66
2022/01/24 09:25:09;;;;;;;16.55;10.00;;;;;;;-4.42;70.77;101981.08;1632517;86;21563;-65
2022/01/24 09:27:35;;;;;;;15.40;9.53;;;;;;;-4.39;70.94;101973.18;1660491;84;21034;-66
2022/01/24 09:30:01;;;;;;;18.50;11.88;;;;;;;-4.31;71.08;101976.83;1663426;84;21019;-65
2022/01/24 09:32:28;;;;;;;20.35;11.88;;;;;;;-4.25;70.47;101975.77;1666360;84;21145;-65
2022/01/24 09:34:54;;;;;;;21.70;11.73;;;;;;;-4.20;70.28;101961.68;1674309;83;21071;-66
2022/01/24 09:37:20;;;;;;;18.77;11.45;;;;;;;-4.16;70.04;101972.38;1674704;84;21049;-64
2022/01/24 09:39:46;;;;;;;18.75;11.43;;;;;;;-4.14;69.88;101967.97;1662501;84;21760;-65
2022/01/24 09:42:16;;;;;;;17.20;11.35;;;;;;;-4.16;69.77;101960.66;1677344;84;21020;-64
2022/01/24 09:44:44;;;;;;;16.80;10.90;;;;;;;-4.18;69.88;101968.98;1656930;84;21051;-65
2022/01/24 09:47:15;;;;;;;16.13;11.33;;;;;;;-4.17;69.96;101960.25;1633787;86;21038;-66
2022/01/24 09:49:45;;;;;;;16.50;11.43;;;;;;;-4.16;70.29;101956.76;1632850;86;21137;-65
2022/01/24 09:52:12;;;;;;;21.03;13.10;;;;;;;-4.14;70.07;101956.71;1633133;86;21073;-67
2022/01/24 09:54:38;;;;;;;19.20;10.38;;;;;;;-4.16;70.10;101959.36;1632855;86;21182;-64
2022/01/24 09:57:04;;;;;;;17.45;9.93;;;;;;;-4.14;70.31;101951.50;1662724;84;21111;-64
2022/01/24 09:59:31;;;;;;;15.78;11.08;;;;;;;-4.10;70.30;101938.77;1670014;84;21032;-64
2022/01/24 10:01:59;;;;;;;14.33;10.07;;;;;;;-3.99;70.39;101939.70;1640070;84;21138;-66
2022/01/24 10:04:28;;;;;;;17.37;10.50;;;;;;;-3.99;69.73;101940.53;1632928;86;21027;-63
2022/01/24 10:07:07;;;;;;;19.10;11.77;;;;;;;-4.02;69.49;101938.48;1629121;86;21100;-66
2022/01/24 10:09:39;;;;;;;15.27;10.03;;;;;;;-4.06;69.89;101934.30;1634598;86;21095;-67
2022/01/24 10:18:03;;;;;;;17.13;9.13;;;;;;;-4.00;68.93;101931.47;1646684;85;21025;-66
2022/01/24 10:20:35;;;;;;;18.33;11.33;;;;;;;-3.94;68.73;101933.41;1607710;87;21721;-63
2022/01/24 10:23:25;;;;;;;16.97;11.43;;;;;;;-3.87;68.79;101927.97;1648483;83;21068;-65
2022/01/24 10:26:04;;;;;;;15.63;11.07;;;;;;;-3.77;68.87;101921.50;1647509;85;21132;-66
2022/01/24 10:28:40;;;;;;;23.23;11.20;;;;;;;-3.72;68.70;101925.63;1642629;85;21021;-65
2022/01/24 10:31:23;;;;;;;21.20;11.63;;;;;;;-3.68;67.93;101908.13;1655330;85;21053;-64
2022/01/24 10:34:07;;;;;;;19.70;11.70;;;;;;;-3.55;67.76;101911.13;1648241;83;21044;-67
2022/01/24 10:36:46;;;;;;;17.97;10.53;;;;;;;-3.53;66.95;101911.45;1647183;85;21029;-64
2022/01/24 10:39:43;;;;;;;20.60;12.00;;;;;;;-3.58;67.32;101909.50;1641394;85;21035;-64
2022/01/24 10:45:18;;;;;;;16.10;10.47;;;;;;;-3.53;67.58;101901.48;1648363;85;21065;-64
2022/01/24 10:47:49;;;;;;;19.23;11.07;;;;;;;-3.46;67.94;101902.11;1647079;85;21136;-65
2022/01/24 10:50:23;;;;;;;16.37;11.83;;;;;;;-3.38;67.89;101891.76;1646445;85;21148;-66
2022/01/24 10:52:52;;;;;;;18.10;10.77;;;;;;;-3.36;67.78;101886.03;1639929;85;20987;-64
2022/01/24 10:55:27;;;;;;;18.77;11.83;;;;;;;-3.34;67.90;101886.81;1642893;83;21053;-64
2022/01/24 10:58:14;;;;;;;25.33;13.07;;;;;;;-3.37;67.64;101885.66;1642661;86;21016;-66
2022/01/24 11:00:41;;;;;;;19.10;12.60;;;;;;;-3.38;67.77;101883.09;1636722;85;21074;-65
2022/01/24 11:03:18;;;;;;;20.27;11.43;;;;;;;-3.39;67.91;101888.78;1628314;85;21069;-64
2022/01/24 11:05:44;;;;;;;17.50;11.22;;;;;;;-3.42;67.69;101884.13;1636355;85;21045;-65
2022/01/24 11:08:16;;;;;;;;;;;;;;;-3.50;67.80;101887.47;1631479;85;21074;-65
2022/01/24 11:10:48;;;;;;;22.07;10.97;;;;;;;-3.53;68.50;101876.26;1636103;85;20115;-67
2022/01/24 11:13:21;;;;;;;20.13;12.80;;;;;;;-3.50;68.99;101881.83;1634329;85;21029;-67
2022/01/24 11:15:58;;;;;;;21.43;13.20;;;;;;;-3.49;67.73;101879.59;1635804;85;21014;-66
2022/01/24 11:18:25;;;;;;;27.17;13.13;;;;;;;-3.52;67.80;101882.34;1618343;85;21127;-65
2022/01/24 11:21:01;;;;;;;17.07;10.53;;;;;;;-3.57;68.02;101872.54;1649188;84;21694;-66
2022/01/24 11:23:21;;;;;;;19.20;11.57;;;;;;;-3.59;67.91;101863.47;1619145;85;21607;-68
2022/01/24 11:25:49;;;;;;;17.27;11.47;;;;;;;-3.99;67.51;101811.59;1638059;86;20971;-66
2022/01/24 11:28:18;;;;;;;17.40;11.30;;;;;;;-3.58;67.90;101861.27;1640494;86;21582;-67
2022/01/24 11:30:59;;;;;;;19.03;10.03;;;;;;;-3.59;67.68;101852.20;1629004;86;21032;-66
2022/01/24 11:33:41;;;;;;;16.63;10.83;;;;;;;-3.48;67.72;101842.20;1644068;83;21082;-65
2022/01/24 11:36:11;;;;;;;15.70;9.50;;;;;;;-3.46;67.22;101864.31;1675969;85;21106;-66
2022/01/24 11:38:44;;;;;;;10.47;7.70;;;;;;;-3.51;67.56;101861.87;1684074;84;21134;-66
2022/01/24 11:41:26;;;;;;;15.17;9.80;;;;;;;-3.49;67.96;101858.74;1676392;84;21573;-68
2022/01/24 11:43:59;;;;;;;15.30;9.97;;;;;;;-3.48;67.28;101856.98;1673180;84;21561;-65
2022/01/24 11:46:56;;;;;;;15.47;9.83;;;;;;;-3.49;67.51;101859.20;1631992;83;21290;-64
2022/01/24 11:49:36;;;;;;;12.60;9.00;;;;;;;-3.49;67.90;101863.11;1631889;86;20994;-66
2022/01/24 11:52:13;;;;;;;17.00;10.40;;;;;;;-3.48;67.98;101837.42;1599853;86;21562;-65
2022/01/24 11:57:29;;;;;;;17.77;9.60;;;;;;;-3.45;67.37;101855.10;1620153;86;21030;-65
2022/01/24 12:00:07;;;;;;;18.93;11.23;;;;;;;-3.48;67.57;101859.58;1627907;86;21546;-65
2022/01/24 12:02:56;;;;;;;16.47;9.63;;;;;;;-3.50;67.82;101862.28;1630270;86;21026;-66
2022/01/24 12:05:29;;;;;;;17.50;10.75;;;;;;;-3.51;67.59;101856.66;1615730;86;21045;-64
2022/01/24 12:08:06;;;;;;;16.03;9.13;;;;;;;-3.50;67.77;101857.49;1623786;86;21050;-64
2022/01/24 12:10:40;;;;;;;15.70;10.30;;;;;;;-3.48;67.75;101856.55;1621029;86;21162;-69
2022/01/24 12:13:27;;;;;;;16.57;9.47;;;;;;;-3.45;67.52;101854.26;1627764;86;21073;-66
2022/01/24 12:15:55;;;;;;;16.37;10.00;;;;;;;-3.41;67.18;101859.31;1577077;89;21361;-65
2022/01/24 12:18:33;;;;;;;14.33;8.47;;;;;;;-3.32;67.37;101851.09;1633916;86;21069;-66
2022/01/24 12:21:09;;;;;;;11.77;8.10;;;;;;;-3.24;67.01;101844.30;1633206;86;21660;-65
2022/01/24 12:23:44;;;;;;;12.43;8.10;;;;;;;-3.16;67.28;101853.95;1629812;86;21482;-64
2022/01/24 12:26:19;;;;;;;10.97;7.73;;;;;;;-3.08;66.62;101850.18;1633250;86;21123;-65
2022/01/24 12:28:52;;;;;;;12.60;8.87;;;;;;;-3.07;66.44;101845.34;1632491;86;21014;-66
2022/01/24 12:31:35;;;;;;;13.10;8.90;;;;;;;-3.09;66.25;101842.78;1628496;86;21553;-66
2022/01/24 12:34:22;;;;;;;13.67;9.47;;;;;;;-3.07;66.38;101837.08;1611408;86;21534;-66
2022/01/24 12:37:00;;;;;;;16.13;8.83;;;;;;;-3.03;66.01;101837.77;1620166;87;21083;-68
2022/01/24 12:39:36;;;;;;;13.80;8.23;;;;;;;-3.03;65.89;101841.25;1633007;87;21152;-67
2022/01/24 12:42:12;;;;;;;12.07;7.77;;;;;;;-2.98;65.95;101847.10;1616200;87;21578;-65
2022/01/24 12:47:12;;;;;;;14.37;9.93;;;;;;;-2.97;65.61;101846.20;1585971;88;21028;-65
2022/01/24 12:49:40;;;;;;;13.80;9.23;;;;;;;-2.94;65.47;101844.78;1629889;87;21094;-68
2022/01/24 12:52:10;;;;;;;16.83;9.13;;;;;;;-2.87;65.57;101847.13;1638423;87;21074;-67
2022/01/24 12:54:46;;;;;;;15.37;9.17;;;;;;;-2.85;65.28;101844.84;1616568;87;21081;-63
2022/01/24 12:57:15;;;;;;;15.73;9.17;;;;;;;-2.85;65.52;101849.22;1668030;84;21457;-64
2022/01/24 12:59:56;;;;;;;11.80;8.20;;;;;;;-2.87;65.48;101847.13;1668543;86;21064;-65
2022/01/24 13:02:29;;;;;;;14.63;9.87;;;;;;;-2.98;64.71;101853.63;1668025;84;21032;-67
2022/01/24 13:05:12;;;;;;;18.60;9.77;;;;;;;-3.06;65.15;101857.48;1662489;84;21111;-65
2022/01/24 13:07:41;;;;;;;14.17;9.40;;;;;;;-3.15;65.41;101841.28;1662511;84;21041;-66
2022/01/24 13:10:12;;;;;;;11.00;8.27;;;;;;;-3.17;65.18;101854.84;1649190;84;21082;-65
2022/01/24 13:12:40;;;;;;;11.07;8.00;;;;;;;-3.14;64.41;101852.59;1672178;82;21116;-64
2022/01/24 13:15:21;;;;;;;13.43;7.90;;;;;;;-3.10;63.78;101861.14;1671222;84;21047;-67